sensor_id;sensor_type;location;lat;lon;timestamp;P1;durP1;ratioP1;P2;durP2;ratioP2
82777;SDS011;72510;45.128;20.734;2023-12-20T00:09:31;19.20;;;10.32;;
82777;SDS011;72510;45.128;20.734;2023-12-20T00:19:33;23.45;;;12.77;;
82777;SDS011;72510;45.128;20.734;2023-12-20T00:29:34;19.30;;;12.18;;
82777;SDS011;72510;45.128;20.734;2023-12-20T00:39:38;22.42;;;11.50;;
82777;SDS011;72510;45.128;20.734;2023-12-20T00:49:39;15.73;;;8.90;;
82777;SDS011;72510;45.128;20.734;2023-12-20T00:59:40;29.60;;;14.35;;
82777;SDS011;72510;45.128;20.734;2023-12-20T01:09:47;22.42;;;10.65;;
82777;SDS011;72510;45.128;20.734;2023-12-20T01:19:48;23.40;;;11.48;;
82777;SDS011;72510;45.128;20.734;2023-12-20T01:29:50;19.25;;;10.00;;
82777;SDS011;72510;45.128;20.734;2023-12-20T01:39:51;40.50;;;17.15;;
82777;SDS011;72510;45.128;20.734;2023-12-20T01:49:53;29.70;;;14.02;;
82777;SDS011;72510;45.128;20.734;2023-12-20T01:59:56;37.85;;;16.55;;
82777;SDS011;72510;45.128;20.734;2023-12-20T02:09:57;25.42;;;11.20;;
82777;SDS011;72510;45.128;20.734;2023-12-20T02:19:59;18.20;;;9.07;;
82777;SDS011;72510;45.128;20.734;2023-12-20T02:30:00;24.52;;;12.70;;
82777;SDS011;72510;45.128;20.734;2023-12-20T02:40:02;20.00;;;10.95;;
82777;SDS011;72510;45.128;20.734;2023-12-20T02:50:05;17.98;;;11.05;;
82777;SDS011;72510;45.128;20.734;2023-12-20T03:00:09;23.13;;;11.80;;
82777;SDS011;72510;45.128;20.734;2023-12-20T03:10:14;18.73;;;11.30;;
82777;SDS011;72510;45.128;20.734;2023-12-20T03:20:17;18.38;;;10.80;;
82777;SDS011;72510;45.128;20.734;2023-12-20T03:30:21;17.30;;;9.93;;
82777;SDS011;72510;45.128;20.734;2023-12-20T03:40:23;24.42;;;11.82;;
82777;SDS011;72510;45.128;20.734;2023-12-20T03:50:24;21.70;;;11.93;;
82777;SDS011;72510;45.128;20.734;2023-12-20T04:00:26;17.58;;;10.20;;
82777;SDS011;72510;45.128;20.734;2023-12-20T04:10:27;22.30;;;10.73;;
82777;SDS011;72510;45.128;20.734;2023-12-20T04:20:28;18.33;;;10.65;;
82777;SDS011;72510;45.128;20.734;2023-12-20T04:30:30;22.08;;;12.10;;
82777;SDS011;72510;45.128;20.734;2023-12-20T04:40:32;20.58;;;11.35;;
82777;SDS011;72510;45.128;20.734;2023-12-20T04:50:35;20.25;;;10.55;;
82777;SDS011;72510;45.128;20.734;2023-12-20T05:00:36;23.30;;;12.00;;
82777;SDS011;72510;45.128;20.734;2023-12-20T05:10:37;21.55;;;11.43;;
82777;SDS011;72510;45.128;20.734;2023-12-20T05:20:41;13.70;;;8.70;;
82777;SDS011;72510;45.128;20.734;2023-12-20T05:30:45;17.60;;;10.07;;
82777;SDS011;72510;45.128;20.734;2023-12-20T05:40:53;24.17;;;12.55;;
82777;SDS011;72510;45.128;20.734;2023-12-20T05:50:57;18.08;;;9.63;;
82777;SDS011;72510;45.128;20.734;2023-12-20T06:01:04;18.23;;;12.25;;
82777;SDS011;72510;45.128;20.734;2023-12-20T06:11:05;25.10;;;15.38;;
82777;SDS011;72510;45.128;20.734;2023-12-20T06:21:07;26.33;;;14.05;;
82777;SDS011;72510;45.128;20.734;2023-12-20T06:31:08;32.80;;;15.85;;
82777;SDS011;72510;45.128;20.734;2023-12-20T06:41:12;26.45;;;13.50;;
82777;SDS011;72510;45.128;20.734;2023-12-20T06:51:15;24.42;;;14.07;;
82777;SDS011;72510;45.128;20.734;2023-12-20T07:01:17;28.70;;;14.10;;
82777;SDS011;72510;45.128;20.734;2023-12-20T07:11:20;17.70;;;9.63;;
82777;SDS011;72510;45.128;20.734;2023-12-20T07:21:23;53.45;;;22.38;;
82777;SDS011;72510;45.128;20.734;2023-12-20T07:31:24;57.75;;;30.83;;
82777;SDS011;72510;45.128;20.734;2023-12-20T07:41:25;66.85;;;34.50;;
82777;SDS011;72510;45.128;20.734;2023-12-20T07:51:27;35.78;;;19.50;;
82777;SDS011;72510;45.128;20.734;2023-12-20T08:01:28;96.40;;;46.63;;
82777;SDS011;72510;45.128;20.734;2023-12-20T08:11:29;28.42;;;15.05;;
82777;SDS011;72510;45.128;20.734;2023-12-20T08:21:30;52.83;;;24.20;;
82777;SDS011;72510;45.128;20.734;2023-12-20T13:12:08;78.95;;;37.67;;
82777;SDS011;72510;45.128;20.734;2023-12-20T13:22:13;59.53;;;30.98;;
82777;SDS011;72510;45.128;20.734;2023-12-20T13:32:14;57.42;;;29.00;;
82777;SDS011;72510;45.128;20.734;2023-12-20T13:42:16;48.78;;;22.58;;
82777;SDS011;72510;45.128;20.734;2023-12-20T13:52:17;54.58;;;25.00;;
82777;SDS011;72510;45.128;20.734;2023-12-20T14:02:19;38.40;;;20.02;;
82777;SDS011;72510;45.128;20.734;2023-12-20T14:12:26;25.80;;;12.75;;
82777;SDS011;72510;45.128;20.734;2023-12-20T14:22:27;44.58;;;22.50;;
82777;SDS011;72510;45.128;20.734;2023-12-20T14:32:31;13.90;;;9.38;;
82777;SDS011;72510;45.128;20.734;2023-12-20T14:42:32;27.40;;;15.63;;
82777;SDS011;72510;45.128;20.734;2023-12-20T14:52:33;29.83;;;17.95;;
82777;SDS011;72510;45.128;20.734;2023-12-20T15:02:35;47.10;;;22.40;;
82777;SDS011;72510;45.128;20.734;2023-12-20T15:12:37;27.27;;;13.82;;
82777;SDS011;72510;45.128;20.734;2023-12-20T15:22:39;30.08;;;17.15;;
82777;SDS011;72510;45.128;20.734;2023-12-20T15:32:44;47.72;;;18.73;;
82777;SDS011;72510;45.128;20.734;2023-12-20T15:42:51;14.88;;;8.68;;
82777;SDS011;72510;45.128;20.734;2023-12-20T15:52:53;25.92;;;12.80;;
82777;SDS011;72510;45.128;20.734;2023-12-20T16:02:56;57.97;;;26.15;;
82777;SDS011;72510;45.128;20.734;2023-12-20T16:12:58;64.28;;;27.98;;
82777;SDS011;72510;45.128;20.734;2023-12-20T16:22:59;31.92;;;15.07;;
82777;SDS011;72510;45.128;20.734;2023-12-20T16:33:02;106.18;;;34.55;;
82777;SDS011;72510;45.128;20.734;2023-12-20T16:43:06;53.95;;;23.77;;
82777;SDS011;72510;45.128;20.734;2023-12-20T16:53:08;86.65;;;37.95;;
82777;SDS011;72510;45.128;20.734;2023-12-20T17:03:11;70.40;;;25.42;;
82777;SDS011;72510;45.128;20.734;2023-12-20T17:13:16;39.63;;;14.23;;
82777;SDS011;72510;45.128;20.734;2023-12-20T17:43:37;59.40;;;24.02;;
82777;SDS011;72510;45.128;20.734;2023-12-20T18:03:50;24.70;;;11.35;;
82777;SDS011;72510;45.128;20.734;2023-12-20T18:13:52;39.33;;;15.68;;
82777;SDS011;72510;45.128;20.734;2023-12-20T18:23:54;40.50;;;18.27;;
82777;SDS011;72510;45.128;20.734;2023-12-20T18:33:55;29.70;;;12.98;;
82777;SDS011;72510;45.128;20.734;2023-12-20T18:43:57;45.65;;;20.63;;
82777;SDS011;72510;45.128;20.734;2023-12-20T18:53:59;49.28;;;20.58;;
82777;SDS011;72510;45.128;20.734;2023-12-20T19:04:01;41.53;;;20.23;;
82777;SDS011;72510;45.128;20.734;2023-12-20T19:14:07;31.35;;;11.98;;
82777;SDS011;72510;45.128;20.734;2023-12-20T19:24:12;39.72;;;14.30;;
82777;SDS011;72510;45.128;20.734;2023-12-20T19:34:13;34.92;;;15.15;;
82777;SDS011;72510;45.128;20.734;2023-12-20T19:44:15;55.40;;;20.52;;
82777;SDS011;72510;45.128;20.734;2023-12-20T19:54:18;65.05;;;21.45;;
82777;SDS011;72510;45.128;20.734;2023-12-20T20:04:22;48.22;;;17.30;;
82777;SDS011;72510;45.128;20.734;2023-12-20T20:14:25;60.30;;;21.58;;
82777;SDS011;72510;45.128;20.734;2023-12-20T20:24:28;79.43;;;23.40;;
82777;SDS011;72510;45.128;20.734;2023-12-20T20:34:30;44.05;;;21.15;;
82777;SDS011;72510;45.128;20.734;2023-12-20T20:44:32;64.43;;;21.90;;
82777;SDS011;72510;45.128;20.734;2023-12-20T20:54:35;41.20;;;20.25;;
82777;SDS011;72510;45.128;20.734;2023-12-20T21:04:36;58.03;;;25.15;;
82777;SDS011;72510;45.128;20.734;2023-12-20T21:14:37;102.32;;;43.90;;
82777;SDS011;72510;45.128;20.734;2023-12-20T21:24:38;73.47;;;33.75;;
82777;SDS011;72510;45.128;20.734;2023-12-20T21:34:39;111.50;;;50.08;;
82777;SDS011;72510;45.128;20.734;2023-12-20T21:44:43;63.17;;;31.50;;
82777;SDS011;72510;45.128;20.734;2023-12-20T21:54:45;86.15;;;38.45;;
82777;SDS011;72510;45.128;20.734;2023-12-20T22:04:48;103.28;;;46.58;;
82777;SDS011;72510;45.128;20.734;2023-12-20T22:14:49;87.13;;;38.30;;
82777;SDS011;72510;45.128;20.734;2023-12-20T22:24:53;120.38;;;47.63;;
82777;SDS011;72510;45.128;20.734;2023-12-20T22:34:54;73.63;;;31.80;;
82777;SDS011;72510;45.128;20.734;2023-12-20T22:44:56;82.70;;;35.10;;
82777;SDS011;72510;45.128;20.734;2023-12-20T22:55:00;69.22;;;38.80;;
